createdAt,value
2022-09-07T00:00:06.242Z,101440.38
2022-09-07T00:02:34.804Z,101445.41
2022-09-07T00:05:03.457Z,101441.03
2022-09-07T00:07:32.755Z,101430.47
2022-09-07T00:10:01.627Z,101422.50
2022-09-07T00:12:30.129Z,101417.97
2022-09-07T00:15:02.278Z,101414.53
2022-09-07T00:17:30.749Z,101408.44
2022-09-07T00:19:59.718Z,101391.28
2022-09-07T00:22:28.324Z,101395.81
2022-09-07T00:24:56.784Z,101387.25
2022-09-07T00:27:25.428Z,101388.34
2022-09-07T00:29:53.852Z,101390.44
2022-09-07T00:32:24.023Z,101391.63
2022-09-07T00:34:52.913Z,101393.94
2022-09-07T00:37:21.558Z,101388.81
2022-09-07T00:39:50.645Z,101396.03
2022-09-07T00:42:22.197Z,101400.78
2022-09-07T00:45:09.136Z,101402.78
2022-09-07T00:47:49.360Z,101398.47
2022-09-07T00:50:25.646Z,101394.69
2022-09-07T00:53:04.465Z,101396.63
2022-09-07T00:55:37.381Z,101400.41
2022-09-07T00:58:08.553Z,101387.63
2022-09-07T01:00:37.737Z,101383.59
2022-09-07T01:05:28.206Z,101410.97
2022-09-07T01:07:57.962Z,101413.13
2022-09-07T01:10:32.065Z,101414.47
2022-09-07T01:13:03.344Z,101412.78
2022-09-07T01:15:47.496Z,101407.50
2022-09-07T01:18:28.981Z,101415.56
2022-09-07T01:21:27.427Z,101407.00
2022-09-07T01:24:48.087Z,101408.94
2022-09-07T01:28:07.009Z,101402.09
2022-09-07T01:30:40.038Z,101394.97
2022-09-07T01:33:40.102Z,101388.38
2022-09-07T01:36:24.378Z,101387.16
2022-09-07T01:38:57.411Z,101380.09
2022-09-07T01:41:34.346Z,101378.63
2022-09-07T01:44:09.652Z,101366.66
2022-09-07T01:46:48.348Z,101369.38
2022-09-07T01:49:23.786Z,101368.31
2022-09-07T01:51:58.212Z,101360.94
2022-09-07T01:54:33.340Z,101350.31
2022-09-07T01:57:10.442Z,101350.06
2022-09-07T01:59:47.414Z,101346.94
2022-09-07T02:02:20.271Z,101341.06
2022-09-07T02:04:58.106Z,101343.00
2022-09-07T02:07:35.168Z,101344.22
2022-09-07T02:10:12.412Z,101351.44
2022-09-07T02:12:48.883Z,101346.19
2022-09-07T02:15:28.116Z,101347.97
2022-09-07T02:18:05.823Z,101338.31
2022-09-07T02:20:39.389Z,101341.50
2022-09-07T02:23:15.662Z,101343.91
2022-09-07T02:25:53.792Z,101352.97
2022-09-07T02:28:29.713Z,101361.28
2022-09-07T02:31:00.385Z,101357.25
2022-09-07T02:33:29.926Z,101363.19
2022-09-07T02:35:59.220Z,101357.22
2022-09-07T02:38:27.864Z,101357.66
2022-09-07T02:41:01.195Z,101356.94
2022-09-07T02:43:32.484Z,101356.53
2022-09-07T02:46:25.073Z,101343.91
2022-09-07T02:49:14.113Z,101335.19
2022-09-07T02:51:57.928Z,101337.88
2022-09-07T02:54:45.089Z,101334.34
2022-09-07T02:57:29.388Z,101339.97
2022-09-07T03:00:11.270Z,101336.41
2022-09-07T03:05:27.733Z,101335.78
2022-09-07T03:08:02.314Z,101328.31
2022-09-07T03:10:32.328Z,101317.75
2022-09-07T03:13:00.969Z,101324.75
2022-09-07T03:15:30.275Z,101321.81
2022-09-07T03:17:59.000Z,101314.91
2022-09-07T03:20:29.080Z,101302.22
2022-09-07T03:22:57.565Z,101304.53
2022-09-07T03:25:26.097Z,101304.53
2022-09-07T03:27:54.716Z,101298.53
2022-09-07T03:30:23.210Z,101303.78
2022-09-07T03:32:51.821Z,101300.03
2022-09-07T03:35:20.638Z,101299.78
2022-09-07T03:37:51.202Z,101301.50
2022-09-07T03:40:19.892Z,101283.13
2022-09-07T03:42:51.080Z,101280.69
2022-09-07T03:45:20.138Z,101281.88
2022-09-07T03:47:49.373Z,101278.13
2022-09-07T03:50:18.051Z,101283.38
2022-09-07T03:52:46.634Z,101280.69
2022-09-07T03:55:16.852Z,101283.63
2022-09-07T03:57:45.433Z,101275.47
2022-09-07T04:00:16.272Z,101276.44
2022-09-07T04:02:44.868Z,101272.28
2022-09-07T04:05:13.495Z,101269.47
2022-09-07T04:07:42.160Z,101278.50
2022-09-07T04:10:11.365Z,101277.25
2022-09-07T04:12:41.209Z,101286.41
2022-09-07T04:15:24.421Z,101287.38
2022-09-07T04:17:52.981Z,101281.78
2022-09-07T04:20:21.470Z,101278.97
2022-09-07T04:22:54.220Z,101272.28
2022-09-07T04:25:23.053Z,101272.28
2022-09-07T04:27:53.015Z,101274.97
2022-09-07T04:30:21.588Z,101277.66
2022-09-07T04:32:50.422Z,101274.00
2022-09-07T04:35:19.303Z,101274.84
2022-09-07T04:37:48.045Z,101286.06
2022-09-07T04:40:16.995Z,101278.22
2022-09-07T04:42:45.711Z,101282.84
2022-09-07T04:45:16.295Z,101271.88
2022-09-07T04:47:49.246Z,101282.16
2022-09-07T04:50:18.973Z,101282.66
2022-09-07T04:52:47.818Z,101281.44
2022-09-07T04:55:16.792Z,101279.03
2022-09-07T04:57:45.201Z,101276.63
2022-09-07T05:00:16.218Z,101277.84
2022-09-07T05:05:18.336Z,101278.59
2022-09-07T05:07:46.873Z,101274.69
2022-09-07T05:10:15.555Z,101268.81
2022-09-07T05:12:44.195Z,101261.25
2022-09-07T05:15:13.139Z,101264.44
2022-09-07T05:17:41.687Z,101254.31
2022-09-07T05:20:11.652Z,101253.06
2022-09-07T05:23:03.490Z,101243.41
2022-09-07T05:25:40.999Z,101243.63
2022-09-07T05:28:09.854Z,101251.22
2022-09-07T05:36:16.278Z,101240.91
2022-09-07T05:38:46.254Z,101244.81
2022-09-07T05:41:17.376Z,101245.03
2022-09-07T05:46:38.676Z,101238.91
2022-09-07T05:49:08.245Z,101230.16
2022-09-07T05:51:38.229Z,101218.72
2022-09-07T05:54:08.274Z,101221.91
2022-09-07T05:56:37.467Z,101215.53
2022-09-07T05:59:06.135Z,101220.56
2022-09-07T06:01:35.498Z,101225.56
2022-09-07T06:04:04.795Z,101219.63
2022-09-07T06:06:33.409Z,101223.38
2022-09-07T06:09:01.987Z,101229.09
2022-09-07T06:11:32.247Z,101229.44
2022-09-07T06:14:00.766Z,101233.22
2022-09-07T06:16:29.818Z,101238.44
2022-09-07T06:18:58.365Z,101227.56
2022-09-07T06:21:26.944Z,101235.97
2022-09-07T06:23:56.137Z,101234.03
2022-09-07T06:26:24.755Z,101233.81
2022-09-07T06:28:57.989Z,101236.72
2022-09-07T06:31:28.962Z,101239.03
2022-09-07T06:33:59.156Z,101236.25
2022-09-07T06:36:29.913Z,101235.44
2022-09-07T06:39:01.708Z,101240.31
2022-09-07T06:44:22.158Z,101236.94
2022-09-07T06:47:05.957Z,101235.53
2022-09-07T06:49:34.553Z,101242.38
2022-09-07T06:52:03.540Z,101239.81
2022-09-07T06:57:20.857Z,101234.06
2022-09-07T06:59:50.833Z,101246.63
2022-09-07T07:05:18.883Z,101250.88
2022-09-07T07:07:47.850Z,101247.03
2022-09-07T07:10:19.697Z,101244.00
2022-09-07T07:12:52.336Z,101251.97
2022-09-07T07:15:21.015Z,101235.69
2022-09-07T07:17:58.075Z,101247.50
2022-09-07T07:20:29.815Z,101246.50
2022-09-07T07:22:58.633Z,101242.34
2022-09-07T07:25:27.347Z,101248.00
2022-09-07T07:27:56.088Z,101262.50
2022-09-07T07:30:26.293Z,101275.34
2022-09-07T07:32:55.572Z,101268.97
2022-09-07T07:35:24.343Z,101271.38
2022-09-07T07:43:35.268Z,101270.22
2022-09-07T07:46:06.147Z,101269.34
2022-09-07T07:48:37.782Z,101276.69
2022-09-07T07:51:12.090Z,101273.47
2022-09-07T07:53:43.190Z,101266.88
2022-09-07T07:56:13.845Z,101276.44
2022-09-07T07:58:46.551Z,101263.66
2022-09-07T08:01:17.881Z,101261.28
2022-09-07T08:03:48.600Z,101264.88
2022-09-07T08:06:19.624Z,101265.25
2022-09-07T08:08:49.951Z,101270.78
2022-09-07T08:11:22.026Z,101261.19
2022-09-07T08:13:52.315Z,101268.09
2022-09-07T08:16:20.951Z,101265.97
2022-09-07T08:18:49.635Z,101261.06
2022-09-07T08:21:18.534Z,101264.50
2022-09-07T08:23:48.388Z,101255.16
2022-09-07T08:26:16.918Z,101261.13
2022-09-07T08:28:46.406Z,101256.56
2022-09-07T08:31:17.905Z,101256.41
2022-09-07T08:33:46.628Z,101256.94
2022-09-07T08:36:17.450Z,101256.06
2022-09-07T08:38:48.745Z,101262.06
2022-09-07T08:41:57.835Z,101265.22
2022-09-07T08:44:32.658Z,101259.19
2022-09-07T08:47:13.406Z,101253.34
2022-09-07T08:49:50.071Z,101251.19
2022-09-07T08:52:24.829Z,101251.91
2022-09-07T08:55:04.974Z,101252.19
2022-09-07T08:57:41.610Z,101250.38
2022-09-07T09:00:17.065Z,101249.72
2022-09-07T09:05:33.030Z,101239.41
2022-09-07T09:08:22.860Z,101233.53
2022-09-07T09:11:03.407Z,101220.97
2022-09-07T09:13:50.318Z,101212.78
2022-09-07T09:16:30.179Z,101203.78
2022-09-07T09:19:19.331Z,101199.91
2022-09-07T09:21:49.567Z,101193.31
2022-09-07T09:24:20.855Z,101194.69
2022-09-07T09:26:57.872Z,101180.94
2022-09-07T09:29:26.725Z,101171.88
2022-09-07T09:31:55.434Z,101178.22
2022-09-07T09:34:27.208Z,101165.28
2022-09-07T09:36:59.419Z,101150.81
2022-09-07T09:39:33.801Z,101147.75
2022-09-07T09:42:18.532Z,101136.19
2022-09-07T09:44:48.033Z,101123.75
2022-09-07T09:47:33.467Z,101119.69
2022-09-07T09:50:09.439Z,101108.28
2022-09-07T09:52:49.375Z,101110.84
2022-09-07T09:55:36.123Z,101110.69
2022-09-07T10:06:22.841Z,101108.34
2022-09-07T10:08:59.224Z,101098.53
2022-09-07T10:14:44.642Z,101105.72
2022-09-07T10:17:20.936Z,101114.00
2022-09-07T10:19:49.812Z,101116.41
2022-09-07T10:22:32.182Z,101132.47
2022-09-07T10:25:04.258Z,101127.84
2022-09-07T10:27:37.283Z,101136.16
2022-09-07T10:30:16.897Z,101141.28
2022-09-07T10:33:01.904Z,101146.22
2022-09-07T10:35:37.158Z,101144.03
2022-09-07T10:38:17.913Z,101154.69
2022-09-07T10:41:00.186Z,101158.59
2022-09-07T10:43:44.110Z,101166.84
2022-09-07T10:46:59.640Z,101156.72
2022-09-07T10:50:21.883Z,101156.56
2022-09-07T10:52:43.081Z,101154.88
2022-09-07T10:55:20.768Z,101160.44
2022-09-07T10:58:08.218Z,101157.03
2022-09-07T11:00:48.808Z,101156.81
2022-09-07T11:05:34.315Z,101167.78
2022-09-07T11:08:27.269Z,101166.09
2022-09-07T11:11:10.661Z,101174.28
2022-09-07T11:14:11.279Z,101159.25
2022-09-07T11:16:55.722Z,101151.59
2022-09-07T11:19:36.949Z,101153.75
2022-09-07T11:22:20.686Z,101145.53
2022-09-07T11:27:50.891Z,101144.28
2022-09-07T11:30:24.833Z,101147.31
2022-09-07T11:33:04.344Z,101137.06
2022-09-07T11:35:46.584Z,101124.66
2022-09-07T11:38:27.110Z,101119.13
2022-09-07T11:41:19.855Z,101129.91
2022-09-07T11:43:57.095Z,101125.75
2022-09-07T11:46:34.374Z,101119.88
2022-09-07T11:49:06.111Z,101117.50
2022-09-07T11:51:43.247Z,101109.56
2022-09-07T11:54:44.263Z,101102.66
2022-09-07T11:57:40.783Z,101099.38
2022-09-07T12:00:19.000Z,101092.16
2022-09-07T12:03:31.772Z,101097.84
2022-09-07T12:06:51.002Z,101090.75
2022-09-07T12:09:54.094Z,101099.28
2022-09-07T12:12:53.173Z,101099.94
2022-09-07T12:15:36.855Z,101085.38
2022-09-07T12:18:33.243Z,101088.66
2022-09-07T12:21:01.944Z,101083.56
2022-09-07T12:23:32.678Z,101075.09
2022-09-07T12:26:54.629Z,101070.94
2022-09-07T12:29:27.354Z,101072.22
2022-09-07T12:31:59.509Z,101078.38
2022-09-07T12:34:55.523Z,101067.03
2022-09-07T12:37:46.763Z,101071.03
2022-09-07T12:40:49.358Z,101071.88
2022-09-07T12:43:55.469Z,101080.09
2022-09-07T12:46:47.150Z,101066.19
2022-09-07T12:49:56.706Z,101074.91
2022-09-07T12:53:05.951Z,101078.31
2022-09-07T12:56:20.959Z,101077.06
2022-09-07T12:59:19.808Z,101071.38
2022-09-07T13:05:41.164Z,101086.28
2022-09-07T13:08:55.687Z,101070.63
2022-09-07T13:11:38.409Z,101074.41
2022-09-07T13:14:20.450Z,101066.66
2022-09-07T13:20:37.677Z,101059.63
2022-09-07T13:23:26.046Z,101062.09
2022-09-07T13:26:01.542Z,101061.00
2022-09-07T13:28:57.391Z,101062.56
2022-09-07T13:31:57.643Z,101062.34
2022-09-07T13:34:46.668Z,101060.75
2022-09-07T13:37:23.007Z,101069.53
2022-09-07T13:39:55.850Z,101064.31
2022-09-07T13:42:30.269Z,101071.88
2022-09-07T13:45:01.992Z,101074.91
2022-09-07T13:47:57.233Z,101067.22
2022-09-07T13:50:43.880Z,101056.13
2022-09-07T13:53:46.586Z,101052.06
2022-09-07T13:56:34.274Z,101056.00
2022-09-07T13:59:18.814Z,101056.25
2022-09-07T14:01:50.714Z,101048.03
2022-09-07T14:04:26.829Z,101055.25
2022-09-07T14:07:03.981Z,101047.19
2022-09-07T14:09:36.051Z,101046.72
2022-09-07T14:12:14.959Z,101046.81
2022-09-07T14:14:43.471Z,101045.91
2022-09-07T14:17:16.832Z,101044.53
2022-09-07T14:19:49.284Z,101042.72
2022-09-07T14:22:20.264Z,101050.56
2022-09-07T14:24:53.704Z,101048.16
2022-09-07T14:27:25.684Z,101048.69
2022-09-07T14:29:54.373Z,101039.03
2022-09-07T14:32:27.318Z,101040.28
2022-09-07T14:34:56.029Z,101036.06
2022-09-07T14:37:25.331Z,101035.13
2022-09-07T14:39:56.487Z,101034.91
2022-09-07T14:42:26.233Z,101034.94
2022-09-07T14:45:21.707Z,101027.44
2022-09-07T14:47:53.000Z,101017.66
2022-09-07T14:50:28.294Z,101016.63
2022-09-07T14:55:49.624Z,101007.91
2022-09-07T14:58:26.006Z,101010.84
2022-09-07T15:05:29.102Z,101008.75
2022-09-07T15:08:00.647Z,101014.22
2022-09-07T15:10:41.731Z,101014.88
2022-09-07T15:13:32.273Z,101004.94
2022-09-07T15:16:04.185Z,101013.09
2022-09-07T15:18:55.965Z,101004.47
2022-09-07T15:21:29.232Z,100997.94
2022-09-07T15:24:01.428Z,100999.66
2022-09-07T15:29:29.859Z,101001.34
2022-09-07T15:32:03.776Z,101011.22
2022-09-07T15:34:34.712Z,101005.16
2022-09-07T15:38:01.025Z,100994.22
2022-09-07T15:39:55.055Z,100996.00
2022-09-07T15:45:14.617Z,100996.34
2022-09-07T15:47:50.909Z,100991.97
2022-09-07T15:50:23.234Z,100993.06
2022-09-07T15:52:54.612Z,100992.56
2022-09-07T15:55:25.776Z,100995.47
2022-09-07T15:58:08.779Z,100995.38
2022-09-07T16:00:39.994Z,101001.16
2022-09-07T16:03:09.277Z,101007.97
2022-09-07T16:05:44.107Z,101003.72
2022-09-07T16:11:18.751Z,101010.69
2022-09-07T16:13:48.237Z,101013.06
2022-09-07T16:16:17.271Z,101008.03
2022-09-07T16:18:47.203Z,101001.81
2022-09-07T16:21:17.215Z,101004.44
2022-09-07T16:23:50.523Z,101006.88
2022-09-07T16:26:22.156Z,100997.50
2022-09-07T16:28:53.958Z,101005.84
2022-09-07T16:31:26.614Z,100993.00
2022-09-07T16:33:55.423Z,100990.16
2022-09-07T16:36:24.581Z,100986.94
2022-09-07T16:39:01.003Z,100988.97
2022-09-07T16:41:32.726Z,100981.09
2022-09-07T16:44:02.251Z,100985.34
2022-09-07T16:46:33.085Z,100984.44
2022-09-07T16:49:01.660Z,100988.09
2022-09-07T16:51:30.645Z,100980.75
2022-09-07T16:54:00.668Z,100988.69
2022-09-07T16:56:36.900Z,100984.97
2022-09-07T16:59:09.983Z,100980.22
2022-09-07T17:01:39.451Z,100977.78
2022-09-07T17:05:18.890Z,100976.16
2022-09-07T17:07:47.776Z,100982.03
2022-09-07T17:10:16.613Z,100981.03
2022-09-07T17:12:45.511Z,100983.97
2022-09-07T17:15:14.809Z,100985.84
2022-09-07T17:17:43.392Z,100979.44
2022-09-07T17:20:12.087Z,100991.38
2022-09-07T17:22:42.641Z,100987.59
2022-09-07T17:25:14.132Z,100987.50
2022-09-07T17:27:44.056Z,100991.72
2022-09-07T17:30:15.225Z,100992.56
2022-09-07T17:32:44.216Z,100990.47
2022-09-07T17:35:12.891Z,100994.94
2022-09-07T17:37:42.902Z,101006.41
2022-09-07T17:40:12.679Z,101006.13
2022-09-07T17:45:29.986Z,101017.44
2022-09-07T17:47:58.593Z,101013.72
2022-09-07T17:50:27.058Z,101018.13
2022-09-07T17:52:57.040Z,101030.41
2022-09-07T17:55:25.834Z,101014.41
2022-09-07T17:58:01.066Z,101023.91
2022-09-07T18:00:32.412Z,101019.84
2022-09-07T18:03:00.797Z,101016.09
2022-09-07T18:05:29.530Z,101013.38
2022-09-07T18:08:00.819Z,101014.59
2022-09-07T18:11:44.935Z,101019.53
2022-09-07T18:13:25.506Z,101016.09
2022-09-07T18:16:00.093Z,101025.59
2022-09-07T18:18:29.944Z,101025.09
2022-09-07T18:20:58.658Z,101030.34
2022-09-07T18:23:29.395Z,101035.09
2022-09-07T18:26:00.751Z,101033.81
2022-09-07T18:31:17.781Z,101039.72
2022-09-07T18:33:47.707Z,101041.94
2022-09-07T18:36:16.698Z,101039.69
2022-09-07T18:38:46.852Z,101039.66
2022-09-07T18:41:16.776Z,101046.59
2022-09-07T18:43:47.111Z,101046.56
2022-09-07T18:46:17.963Z,101043.50
2022-09-07T18:48:47.322Z,101052.63
2022-09-07T18:51:17.789Z,101055.16
2022-09-07T18:53:47.994Z,101050.66
2022-09-07T18:56:19.497Z,101042.50
2022-09-07T18:58:48.438Z,101046.22
2022-09-07T19:01:19.522Z,101044.66
2022-09-07T19:08:08.771Z,101042.84
2022-09-07T19:10:38.604Z,101054.47
2022-09-07T19:13:07.492Z,101044.25
2022-09-07T19:15:37.803Z,101042.53
2022-09-07T19:18:08.882Z,101041.69
2022-09-07T19:20:39.463Z,101047.59
2022-09-07T19:23:08.191Z,101053.34
2022-09-07T19:25:42.490Z,101049.22
2022-09-07T19:28:12.077Z,101043.06
2022-09-07T19:30:40.555Z,101042.97
2022-09-07T19:33:12.232Z,101052.72
2022-09-07T19:35:42.229Z,101045.94
2022-09-07T19:38:12.690Z,101047.09
2022-09-07T19:40:41.399Z,101049.81
2022-09-07T19:43:09.938Z,101047.25
2022-09-07T19:45:40.668Z,101047.25
2022-09-07T19:48:09.499Z,101035.41
2022-09-07T19:50:38.094Z,101032.69
2022-09-07T19:53:08.060Z,101032.69
2022-09-07T19:55:36.563Z,101036.31
2022-09-07T19:58:05.475Z,101030.81
2022-09-07T20:00:34.269Z,101029.28
2022-09-07T20:03:02.829Z,101025.50
2022-09-07T20:05:31.821Z,101026.97
2022-09-07T20:08:00.434Z,101024.53
2022-09-07T20:10:31.904Z,101027.81
2022-09-07T20:13:00.792Z,101026.97
2022-09-07T20:15:30.012Z,101028.09
2022-09-07T20:17:59.328Z,101045.53
2022-09-07T20:20:28.056Z,101034.69
2022-09-07T20:22:56.663Z,101040.13
2022-09-07T20:25:25.239Z,101025.84
2022-09-07T20:27:55.181Z,101034.44
2022-09-07T20:30:25.294Z,101030.56
2022-09-07T20:32:54.007Z,101029.28
2022-09-07T20:35:25.554Z,101022.69
2022-09-07T20:37:54.294Z,101029.34
2022-09-07T20:40:23.240Z,101024.09
2022-09-07T20:42:51.894Z,101027.50
2022-09-07T20:45:21.842Z,101017.66
2022-09-07T20:47:50.350Z,101026.63
2022-09-07T20:50:19.007Z,101015.78
2022-09-07T20:52:48.143Z,101024.97
2022-09-07T20:55:16.890Z,101023.25
2022-09-07T20:57:45.627Z,101022.25
2022-09-07T21:00:14.688Z,101024.78
2022-09-07T21:05:19.109Z,101018.38
2022-09-07T21:07:47.766Z,101021.94
2022-09-07T21:10:16.476Z,101023.25
2022-09-07T21:12:44.973Z,101018.13
2022-09-07T21:15:13.518Z,101022.53
2022-09-07T21:17:41.950Z,101018.28
2022-09-07T21:20:11.519Z,101015.16
2022-09-07T21:22:41.469Z,101013.63
2022-09-07T21:25:11.023Z,101014.06
2022-09-07T21:27:39.615Z,101010.28
2022-09-07T21:30:09.601Z,101008.13
2022-09-07T21:32:38.092Z,101000.84
2022-09-07T21:35:07.803Z,101008.38
2022-09-07T21:37:36.397Z,101010.69
2022-09-07T21:40:08.120Z,101004.91
2022-09-07T21:42:36.888Z,101004.19
2022-09-07T21:45:07.196Z,101015.19
2022-09-07T21:47:36.043Z,101011.47
2022-09-07T21:50:05.846Z,101006.59
2022-09-07T21:52:34.692Z,101005.22
2022-09-07T21:55:03.222Z,100999.63
2022-09-07T21:57:33.303Z,100991.06
2022-09-07T22:00:01.874Z,100993.78
2022-09-07T22:02:30.734Z,100992.06
2022-09-07T22:04:59.293Z,100996.63
2022-09-07T22:07:27.786Z,100991.69
2022-09-07T22:09:56.302Z,101001.25
2022-09-07T22:12:25.087Z,101013.22
2022-09-07T22:14:55.081Z,101002.25
2022-09-07T22:17:23.723Z,100996.28
2022-09-07T22:19:52.392Z,101000.59
2022-09-07T22:22:21.245Z,100996.94
2022-09-07T22:24:49.666Z,101000.13
2022-09-07T22:27:18.199Z,101002.09
2022-09-07T22:29:46.655Z,100987.47
2022-09-07T22:32:16.697Z,100989.47
2022-09-07T22:34:45.125Z,100985.50
2022-09-07T22:37:13.662Z,100994.06
2022-09-07T22:39:42.156Z,100987.13
2022-09-07T22:42:10.822Z,100994.59
2022-09-07T22:44:39.652Z,100989.19
2022-09-07T22:47:08.206Z,100985.09
2022-09-07T22:49:38.103Z,100978.69
2022-09-07T22:52:06.714Z,100984.50
2022-09-07T22:54:35.346Z,100978.69
2022-09-07T22:57:03.871Z,100969.00
2022-09-07T22:59:32.586Z,100968.88
2022-09-07T23:05:18.259Z,100959.53
2022-09-07T23:07:50.127Z,100966.22
2022-09-07T23:10:19.075Z,100952.88
2022-09-07T23:12:47.674Z,100948.59
2022-09-07T23:15:16.597Z,100958.53
2022-09-07T23:17:45.388Z,100958.13
2022-09-07T23:20:13.893Z,100940.47
2022-09-07T23:22:45.862Z,100941.06
2022-09-07T23:25:14.885Z,100949.75
2022-09-07T23:27:43.592Z,100952.16
2022-09-07T23:30:14.040Z,100952.44
2022-09-07T23:32:42.744Z,100955.72
2022-09-07T23:35:14.859Z,100944.34
2022-09-07T23:37:46.665Z,100946.63
2022-09-07T23:40:15.462Z,100943.94
2022-09-07T23:42:43.967Z,100940.50
2022-09-07T23:45:12.729Z,100932.97
2022-09-07T23:47:41.764Z,100934.69
2022-09-07T23:50:11.938Z,100940.34
2022-09-07T23:52:40.542Z,100933.69
2022-09-07T23:55:11.736Z,100944.50
2022-09-07T23:57:40.671Z,100950.31
